Island Heights, New Jersey
Current Conditions -  °F | °C
As of 7:35 AM on Monday 24 Nov 2014 (Local Time) from KMJX Reporting Station
Overcast Overcast  
Wind Chill: 17°   Ceiling: 600
Heat Index: 17°   Visibility: 10mi
Dew Point: 16°   Wind: 12mph
Humidity: 94%   Direction: 210°SSW
Pressure: 29.72"   Gusts: 20mph
Location:  39.94°N, 74.15°W
Report Text: KMJX 241235Z AUTO 21010G17KT 10SM BKN006 OVC013 17/16 A2972 RMK AO1
Loading
Personal Weather Stations






























Interactive Weather Map New forecast layout! Learn more

10-Day Weather Forecast

Advertisements
Track Severe Weather on mobile